Nearby METAR Reports

 

KSJC - San Jose, California, USA
Distance from station: NE 9mi, 14km
Updated: Fri, 04-Dec-2020 11:53am PST
Few Clouds
Few Clouds
 Wind from E
Wind: E 3 mph , 6 km/h
Temperature: 61°F , 16°C
Dew Point: 39°F , 4°C
Humidity: 45%
Barometer: 30.25 inHg , 1024.4 hPa
Clouds: Few Clouds
Visibility: 8 miles , 13 km
Cloud details: Few Clouds 200 ft
Few Clouds 10000 ft
2020/12/04 19:53 KSJC 041953Z 08003KT 8SM FEW002 FEW100 16/04 A3025 RMK AO2 PRESFR SLP241 FU FEW002 T01560039
KNUQ - Moffett Nas/Mtn, California, USA
Distance from station: N 9mi, 14km
Updated: Sun, 15-Nov-2020 2:00am PST
NOT Current
Clear
Clear
 Wind from calm
Wind: Calm
Temperature: 43°F , 6°C
Dew Point: 41°F , 5°C
Humidity: 93%
Barometer: 30.28 inHg , 1025.4 hPa
Clouds: Clear
Visibility: 10 miles , 16 km
2020/11/15 10:00 KNUQ 151000Z AUTO 00000KT 10SM CLR 06/05 A3028 RMK AO2
 
KPAO - Palo Alto, California, USA
Distance from station: NNW 14mi, 23km
Updated: Fri, 04-Dec-2020 11:47am PST
Clear
Clear
 Wind from varies
Wind: varies 3 mph , 6 km/h
Temperature: 57°F , 14°C
Dew Point: 39°F , 4°C
Humidity: 51%
Barometer: 30.25 inHg , 1024.4 hPa
Clouds: Clear
Visibility: 10 miles , 16 km
2020/12/04 19:47 KPAO 041947Z VRB03KT 10SM SKC 14/04 A3025
KRHV - San Jose/Reid, California, USA
Distance from station: ENE 12mi, 19km
Updated: Fri, 04-Dec-2020 11:47am PST
Haze, Few clouds
Haze, Few clouds
 Wind from NNE
Wind: NNE 3 mph , 6 km/h
Temperature: 61°F , 16°C
Dew Point: 37°F , 3°C
Humidity: 42%
Barometer: 30.26 inHg , 1024.7 hPa
Summary: Haze
Clouds: Few Clouds
Visibility: 9 miles , 14 km
Cloud details: Few Clouds 10000 ft
2020/12/04 19:47 KRHV 041947Z 02003KT 9SM HZ FEW100 16/03 A3026
 
KOAK - Oakland, California, USA
Distance from station: NNW 31mi, 50km
Updated: Fri, 04-Dec-2020 11:53am PST
Haze, Clear
Haze, Clear
 Wind from SW
Wind: SW 3 mph , 6 km/h
Temperature: 57°F , 14°C
Dew Point: 46°F , 8°C
Humidity: 67%
Barometer: 30.26 inHg , 1024.7 hPa
Summary: Haze
Clouds: Clear
Visibility: 6 miles , 10 km
2020/12/04 19:53 KOAK 041953Z 23003KT 6SM HZ CLR 14/08 A3026 RMK AO2 SLP246 T01390083
KSQL - San Carlos Airpo, California, USA
Distance from station: NW 21mi, 34km
Updated: Fri, 04-Dec-2020 11:47am PST
Clear
Clear
 Wind from calm
Wind: Calm
Temperature: 59°F , 15°C
Dew Point: 43°F , 6°C
Humidity: 55%
Barometer: 30.26 inHg , 1024.7 hPa
Clouds: Clear
Visibility: 7 miles , 11 km
2020/12/04 19:47 KSQL 041947Z 00000KT 7SM SKC 15/06 A3026
 
KSFO - San Francisco, California, USA
Distance from station: NW 30mi, 49km
Updated: Fri, 04-Dec-2020 11:56am PST
Few Clouds
Few Clouds
 Wind from ENE
Wind: ENE 5 mph , 7 km/h
Temperature: 57°F , 14°C
Dew Point: 46°F , 8°C
Humidity: 67%
Barometer: 30.25 inHg , 1024.4 hPa
Clouds: Few Clouds
Visibility: 8 miles , 13 km
Cloud details: Few Clouds 500 ft
2020/12/04 19:56 KSFO 041956Z 06004KT 8SM FEW005 14/08 A3025 RMK AO2 SLP243 T01440078
KE16 - San Martin, California, USA
Distance from station: ESE 27mi, 43km
Updated: Fri, 04-Dec-2020 11:55am PST
Clear
Clear
 Wind from NNW
Wind: NNW 6 mph , 9 km/h
Temperature: 63°F , 17°C
Dew Point: 36°F , 2°C
Humidity: 37%
Barometer: 30.26 inHg , 1024.7 hPa
Clouds: Clear
Visibility: 10 miles , 16 km
2020/12/04 19:55 KE16 041955Z AUTO 34005KT 10SM CLR 17/02 A3026 RMK AO2
 
KWVI - Watsonville, California, USA
Distance from station: SSE 27mi, 44km
Updated: Fri, 04-Dec-2020 11:53am PST
Clear
Clear
 Wind from calm
Wind: Calm
Temperature: 64°F , 18°C
Dew Point: 37°F , 3°C
Humidity: 37%
Barometer: 30.24 inHg , 1024 hPa
Clouds: Clear
Visibility: 10 miles , 16 km
2020/12/04 19:53 KWVI 041953Z AUTO 00000KT 10SM CLR 18/03 A3024 RMK AO2 SLP239 T01780028
KHAF - Half Moon Bay, California, USA
Distance from station: WNW 31mi, 50km
Updated: Fri, 04-Dec-2020 11:55am PST
Haze, Clear
Haze, Clear
 Wind from calm
Wind: Calm
Temperature: 64°F , 18°C
Dew Point: 39°F , 4°C
Humidity: 40%
Barometer: 30.23 inHg , 1023.7 hPa
Summary: Haze
Clouds: Clear
Visibility: 5 miles , 8 km
2020/12/04 19:55 KHAF 041955Z AUTO 00000KT 5SM HZ CLR 18/04 A3023 RMK AO2
 
KHWD - Hayward, California, USA
Distance from station: N 28mi, 44km
Updated: Fri, 04-Dec-2020 11:54am PST
Haze, Clear
Haze, Clear
 Wind from SSW
Wind: SSW 3 mph , 6 km/h
Temperature: 63°F , 17°C
Dew Point: 37°F , 3°C
Humidity: 39%
Barometer: 30.24 inHg , 1024 hPa
Summary: Haze
Clouds: Clear
Visibility: 5 miles , 8 km
2020/12/04 19:54 KHWD 041954Z 21003KT 5SM HZ CLR 17/03 A3024 RMK AO2 SLP251 T01720033
KLVK - Livermore, California, USA
Distance from station: NNE 31mi, 51km
Updated: Fri, 04-Dec-2020 11:53am PST
Clear
Clear
 Wind from calm
Wind: Calm
Temperature: 63°F , 17°C
Dew Point: 32°F , 0°C
Humidity: 32%
Barometer: 30.25 inHg , 1024.4 hPa
Clouds: Clear
Visibility: 10 miles , 16 km
2020/12/04 19:53 KLVK 041953Z 00000KT 10SM CLR 17/00 A3025 RMK AO2 SLP242 T01670000